WABB

Frans Kaisiepo Airport

Biak-Supiori Island, Indonesia
TAF WABB 230500Z 2306/2412 26008KT 9999 SCT018 TEMPO 2306/2307 6000 RA FEW017CB BECMG 2310/2312 00000KT
Issued Valid From Valid To
Apr-23 @ 05:00 UTC
(5 hours ago)
Apr-23 @ 06:00 UTC
(4 hours ago)
Apr-24 @ 12:00 UTC
(-1 days ago)
Apr-23 @ 06:00 to Apr-23 @ 10:00
TAF WABB 230500Z 2306/2412 26008KT 9999 SCT018
Wind Visibility Clouds
260° at 8 knots 10,000+ meters
  • Scattered at 1,800' AGL
Expired Click to View Apr-23 @ 06:00 to Apr-23 @ 07:00
TEMPO 2306/2307 6000 RA FEW017CB
Visibility Clouds Conditions
6,003 meters
  • Few at 1,700' AGL
  • Rain
Becoming Apr-23 @ 10:00 to Apr-24 @ 12:00
BECMG 2310/2312 00000KT
Visibility Clouds
10,000+ meters
  • Scattered at 1,800' AGL
TAF WABB 230500Z 2306/2412 26008KT 9999 SCT018 TEMPO 2306/2307 6000 RA FEW017CB BECMG 2310/2312 00000KT
Issued Apr-23 @ 05:00 UTC
(5 hours ago)
Valid From Apr-23 @ 06:00 UTC
(4 hours ago)
Valid To Apr-24 @ 12:00 UTC
(-1 days ago)
Apr-23 @ 06:00 - Apr-23 @ 10:00
Wind Visibility
260° at 8 knots 10,000+ meters
Clouds
  • Scattered at 1,800' AGL
Apr-23 @ 06:00 - Apr-23 @ 07:00
Clouds
  • Few at 1,700' AGL
Conditions
  • Rain
Becoming Apr-23 @ 10:00 - Apr-24 @ 12:00
Clouds
  • Scattered at 1,800' AGL